createdAt,value
2015-07-11T00:00:13.208Z,95934
2015-07-11T00:00:31.617Z,95934
2015-07-11T00:00:50.039Z,95931
2015-07-11T00:01:08.476Z,95932
2015-07-11T00:01:27.070Z,95924
2015-07-11T00:01:45.650Z,95938
2015-07-11T00:02:04.072Z,95927
2015-07-11T00:02:22.541Z,95933
2015-07-11T00:02:40.933Z,95933
2015-07-11T00:02:59.355Z,95928
2015-07-11T00:03:17.730Z,95926
2015-07-11T00:03:36.230Z,95931
2015-07-11T00:03:54.873Z,95926
2015-07-11T00:04:13.373Z,95931
2015-07-11T00:04:31.764Z,95923
2015-07-11T00:04:50.173Z,95928
2015-07-11T00:05:09.017Z,95926
2015-07-11T00:05:27.876Z,95928
2015-07-11T00:05:46.314Z,95925
2015-07-11T00:06:04.721Z,95919
2015-07-11T00:06:23.252Z,95927
2015-07-11T00:06:41.799Z,95924
2015-07-11T00:07:00.395Z,95930
2015-07-11T00:07:18.973Z,95933
2015-07-11T00:07:37.535Z,95927
2015-07-11T00:07:55.941Z,95921
2015-07-11T00:08:14.318Z,95921
2015-07-11T00:08:32.881Z,95921
2015-07-11T00:08:51.287Z,95932
2015-07-11T00:09:09.868Z,95932
2015-07-11T00:09:28.321Z,95926
2015-07-11T00:09:46.775Z,95924
2015-07-11T00:10:05.228Z,95921
2015-07-11T00:10:23.902Z,95925
2015-07-11T00:10:42.261Z,95936
2015-07-11T00:11:00.761Z,95928
2015-07-11T00:11:19.435Z,95927
2015-07-11T00:11:38.638Z,95930
2015-07-11T00:11:57.107Z,95919
2015-07-11T00:12:15.514Z,95933
2015-07-11T00:12:33.983Z,95941
2015-07-11T00:12:52.358Z,95927
2015-07-11T00:13:10.780Z,95933
2015-07-11T00:13:29.173Z,95933
2015-07-11T00:13:47.064Z,95927
2015-07-11T00:14:05.673Z,95938
2015-07-11T00:14:24.048Z,95933
2015-07-11T00:14:42.456Z,95933
2015-07-11T00:15:00.847Z,95927
2015-07-11T00:15:19.331Z,95933
2015-07-11T00:15:37.896Z,95933
2015-07-11T00:15:56.255Z,95925
2015-07-11T00:16:14.677Z,95933
2015-07-11T00:16:33.068Z,95934
2015-07-11T00:16:51.601Z,95929
2015-07-11T00:17:10.398Z,95929
2015-07-11T00:17:28.789Z,95926
2015-07-11T00:17:47.166Z,95929
2015-07-11T00:18:05.650Z,95929
2015-07-11T00:18:24.400Z,95937
2015-07-11T00:18:42.900Z,95934
2015-07-11T00:19:01.308Z,95940
2015-07-11T00:19:19.855Z,95937
2015-07-11T00:19:38.230Z,95928
2015-07-11T00:19:56.638Z,95933
2015-07-11T00:20:15.310Z,95939
2015-07-11T00:20:33.763Z,95926
2015-07-11T00:20:52.185Z,95943
2015-07-11T00:21:10.657Z,95935
2015-07-11T00:21:29.094Z,95938
2015-07-11T00:21:47.516Z,95926
2015-07-11T00:22:05.971Z,95937
2015-07-11T00:22:24.456Z,95942
2015-07-11T00:22:43.190Z,95946
2015-07-11T00:23:01.941Z,95941
2015-07-11T00:23:20.457Z,95938
2015-07-11T00:23:39.019Z,95952
2015-07-11T00:23:57.519Z,95938
2015-07-11T00:24:16.006Z,95940
2015-07-11T00:24:34.428Z,95932
2015-07-11T00:24:52.803Z,95943
2015-07-11T00:25:11.193Z,95949
2015-07-11T00:25:29.602Z,95941
2015-07-11T00:25:48.071Z,95944
2015-07-11T00:26:06.571Z,95935
2015-07-11T00:26:24.948Z,95938
2015-07-11T00:26:43.526Z,95944
2015-07-11T00:27:02.042Z,95942
2015-07-11T00:27:20.636Z,95942
2015-07-11T00:27:39.074Z,95936
2015-07-11T00:27:57.887Z,95941
2015-07-11T00:28:16.434Z,95941
2015-07-11T00:28:34.796Z,95929
2015-07-11T00:28:53.343Z,95929
2015-07-11T00:29:11.952Z,95937
2015-07-11T00:29:30.546Z,95937
2015-07-11T00:29:48.923Z,95937
2015-07-11T00:30:07.673Z,95928
2015-07-11T00:30:26.423Z,95931
2015-07-11T00:30:44.831Z,95929
2015-07-11T00:31:03.269Z,95935
2015-07-11T00:31:21.628Z,95929
2015-07-11T00:31:40.034Z,95932
2015-07-11T00:31:58.552Z,95932
2015-07-11T00:32:17.083Z,95930
2015-07-11T00:32:35.536Z,95935
2015-07-11T00:32:54.038Z,95927
2015-07-11T00:33:12.398Z,95931
2015-07-11T00:33:30.773Z,95934
2015-07-11T00:33:49.382Z,95925
2015-07-11T00:34:07.915Z,95931
2015-07-11T00:34:26.368Z,95931
2015-07-11T00:34:44.790Z,95928
2015-07-11T00:35:03.199Z,95920
2015-07-11T00:35:21.636Z,95925
2015-07-11T00:35:40.324Z,95939
2015-07-11T00:35:59.029Z,95922
2015-07-11T00:36:17.622Z,95938
2015-07-11T00:36:36.279Z,95930
2015-07-11T00:36:54.841Z,95938
2015-07-11T00:37:13.359Z,95935
2015-07-11T00:37:31.984Z,95937
2015-07-11T00:37:50.406Z,95937
2015-07-11T00:38:09.017Z,95934
2015-07-11T00:38:27.392Z,95926
2015-07-11T00:38:45.783Z,95934
2015-07-11T00:39:04.251Z,95929
2015-07-11T00:39:22.989Z,95926
2015-07-11T00:39:41.458Z,95929
2015-07-11T00:39:59.911Z,95935
2015-07-11T00:40:18.333Z,95916
2015-07-11T00:40:36.896Z,95929
2015-07-11T00:40:55.474Z,95932
2015-07-11T00:41:13.834Z,95935
2015-07-11T00:41:32.352Z,95924
2015-07-11T00:41:50.743Z,95930
2015-07-11T00:42:09.102Z,95927
2015-07-11T00:42:27.493Z,95928
2015-07-11T00:42:45.854Z,95928
2015-07-11T00:43:04.167Z,95922
2015-07-11T00:43:22.839Z,95919
2015-07-11T00:43:40.919Z,95917
2015-07-11T00:43:59.278Z,95926
2015-07-11T00:44:17.575Z,95926
2015-07-11T00:44:35.934Z,95928
2015-07-11T00:44:54.467Z,95928
2015-07-11T00:45:12.998Z,95923
2015-07-11T00:45:31.498Z,95934
2015-07-11T00:45:49.923Z,95926
2015-07-11T00:46:08.423Z,95926
2015-07-11T00:46:26.829Z,95929
2015-07-11T00:46:45.563Z,95923
2015-07-11T00:47:03.939Z,95929
2015-07-11T00:47:22.346Z,95931
2015-07-11T00:47:40.721Z,95928
2015-07-11T00:47:59.099Z,95939
2015-07-11T00:48:17.739Z,95927
2015-07-11T00:48:36.130Z,95930
2015-07-11T00:48:54.567Z,95927
2015-07-11T00:49:13.226Z,95933
2015-07-11T00:49:31.694Z,95931
2015-07-11T00:49:50.319Z,95928
2015-07-11T00:50:08.759Z,95925
2015-07-11T00:50:27.431Z,95928
2015-07-11T00:50:45.821Z,95925
2015-07-11T00:51:04.259Z,95928
2015-07-11T00:51:22.651Z,95923
2015-07-11T00:51:41.261Z,95929
2015-07-11T00:51:59.776Z,95921
2015-07-11T00:52:18.248Z,95924
2015-07-11T00:52:36.717Z,95927
2015-07-11T00:52:55.326Z,95924
2015-07-11T00:53:14.030Z,95921
2015-07-11T00:53:32.421Z,95929
2015-07-11T00:53:50.921Z,95930
2015-07-11T00:54:09.421Z,95922
2015-07-11T00:54:27.877Z,95925
2015-07-11T00:54:46.299Z,95927
2015-07-11T00:55:04.799Z,95927
2015-07-11T00:55:23.362Z,95911
2015-07-11T00:55:41.956Z,95913
2015-07-11T00:56:00.409Z,95920
2015-07-11T00:56:18.925Z,95918
2015-07-11T00:56:37.911Z,95926
2015-07-11T00:56:56.552Z,95916
2015-07-11T00:57:14.958Z,95914
2015-07-11T00:57:33.568Z,95919
2015-07-11T00:57:51.993Z,95925
2015-07-11T00:58:10.399Z,95923
2015-07-11T00:58:28.852Z,95910
2015-07-11T00:58:47.245Z,95917
2015-07-11T00:59:05.651Z,95910
2015-07-11T00:59:24.057Z,95916
2015-07-11T00:59:42.651Z,95914
2015-07-11T01:00:01.089Z,95910
2015-07-11T01:00:19.621Z,95916
2015-07-11T01:00:38.011Z,95919
2015-07-11T01:00:56.420Z,95910
2015-07-11T01:01:14.811Z,95913
2015-07-11T01:01:33.202Z,95908
2015-07-11T01:01:51.608Z,95914
2015-07-11T01:02:10.079Z,95916
2015-07-11T01:02:28.516Z,95912
2015-07-11T01:02:46.876Z,95901
2015-07-11T01:03:05.253Z,95912
2015-07-11T01:03:22.987Z,95914
2015-07-11T01:03:41.346Z,95908
2015-07-11T01:03:59.737Z,95905
2015-07-11T01:04:18.114Z,95910
2015-07-11T01:04:36.520Z,95907
2015-07-11T01:04:54.880Z,95904
2015-07-11T01:05:13.258Z,95898
2015-07-11T01:05:31.617Z,95912
2015-07-11T01:05:49.992Z,95907
2015-07-11T01:06:08.367Z,95909
2015-07-11T01:06:26.743Z,95898
2015-07-11T01:06:45.118Z,95901
2015-07-11T01:07:03.477Z,95898
2015-07-11T01:07:21.854Z,95898
2015-07-11T01:07:40.229Z,95912
2015-07-11T01:07:58.604Z,95904
2015-07-11T01:08:16.995Z,95895
2015-07-11T01:08:35.497Z,95892
2015-07-11T01:08:53.872Z,95896
2015-07-11T01:09:12.247Z,95907
2015-07-11T01:09:30.624Z,95904
2015-07-11T01:09:49.030Z,95909
2015-07-11T01:10:07.390Z,95901
2015-07-11T01:10:25.765Z,95898
2015-07-11T01:10:44.142Z,95895
2015-07-11T01:11:02.517Z,95881
2015-07-11T01:11:20.892Z,95897
2015-07-11T01:11:39.270Z,95892
2015-07-11T01:11:57.645Z,95890
2015-07-11T01:12:16.020Z,95890
2015-07-11T01:12:33.754Z,95893
2015-07-11T01:12:52.147Z,95898
2015-07-11T01:13:10.522Z,95897
2015-07-11T01:13:28.912Z,95894
2015-07-11T01:13:47.288Z,95894
2015-07-11T01:14:05.679Z,95889
2015-07-11T01:14:24.054Z,95884
2015-07-11T01:14:42.444Z,95895
2015-07-11T01:15:00.822Z,95882
2015-07-11T01:15:18.526Z,95896
2015-07-11T01:15:36.901Z,95879
2015-07-11T01:15:55.278Z,95885
2015-07-11T01:16:13.653Z,95888
2015-07-11T01:16:32.028Z,95888
2015-07-11T01:16:50.403Z,95879
2015-07-11T01:17:08.763Z,95896
2015-07-11T01:17:27.169Z,95885
2015-07-11T01:17:45.529Z,95882
2015-07-11T01:18:03.922Z,95885
2015-07-11T01:18:22.313Z,95881
2015-07-11T01:18:40.672Z,95878
2015-07-11T01:18:59.063Z,95883
2015-07-11T01:19:17.440Z,95882
2015-07-11T01:19:35.815Z,95882
2015-07-11T01:19:54.190Z,95885
2015-07-11T01:20:12.582Z,95883
2015-07-11T01:20:30.957Z,95889
2015-07-11T01:20:49.332Z,95886
2015-07-11T01:21:07.707Z,95883
2015-07-11T01:21:26.084Z,95872
2015-07-11T01:21:44.444Z,95878
2015-07-11T01:22:02.819Z,95873
2015-07-11T01:22:21.196Z,95881
2015-07-11T01:22:39.586Z,95878
2015-07-11T01:22:57.946Z,95880
2015-07-11T01:23:16.336Z,95878
2015-07-11T01:23:34.729Z,95877
2015-07-11T01:23:53.120Z,95885
2015-07-11T01:24:11.526Z,95874
2015-07-11T01:24:29.262Z,95885
2015-07-11T01:24:46.997Z,95884
2015-07-11T01:25:05.372Z,95870
2015-07-11T01:25:23.747Z,95878
2015-07-11T01:25:42.108Z,95879
2015-07-11T01:26:00.499Z,95868
2015-07-11T01:26:18.889Z,95875
2015-07-11T01:26:37.266Z,95866
2015-07-11T01:26:55.626Z,95877
2015-07-11T01:27:14.001Z,95875
2015-07-11T01:27:32.376Z,95875
2015-07-11T01:27:50.753Z,95875
2015-07-11T01:28:09.128Z,95875
2015-07-11T01:28:27.503Z,95869
2015-07-11T01:28:45.880Z,95869
2015-07-11T01:29:03.614Z,95869
2015-07-11T01:29:21.973Z,95878
2015-07-11T01:29:40.348Z,95870
2015-07-11T01:29:58.725Z,95870
2015-07-11T01:30:17.100Z,95864
2015-07-11T01:30:35.475Z,95862
2015-07-11T01:30:53.852Z,95871
2015-07-11T01:31:12.259Z,95866
2015-07-11T01:31:30.649Z,95872
2015-07-11T01:31:49.024Z,95866
2015-07-11T01:32:07.401Z,95858
2015-07-11T01:32:25.776Z,95858
2015-07-11T01:32:44.136Z,95861
2015-07-11T01:33:02.513Z,95870
2015-07-11T01:33:20.903Z,95862
2015-07-11T01:33:39.247Z,95867
2015-07-11T01:33:57.638Z,95864
2015-07-11T01:34:16.016Z,95859
2015-07-11T01:34:34.406Z,95873
2015-07-11T01:34:52.781Z,95867
2015-07-11T01:35:11.158Z,95867
2015-07-11T01:35:29.533Z,95875
2015-07-11T01:35:47.908Z,95867
2015-07-11T01:36:06.361Z,95870
2015-07-11T01:36:24.753Z,95873
2015-07-11T01:36:43.144Z,95870
2015-07-11T01:37:01.534Z,95870
2015-07-11T01:37:19.928Z,95870
2015-07-11T01:37:38.303Z,95873
2015-07-11T01:37:56.678Z,95867
2015-07-11T01:38:15.069Z,95864
2015-07-11T01:38:33.430Z,95859
2015-07-11T01:38:51.805Z,95867
2015-07-11T01:39:10.180Z,95862
2015-07-11T01:39:28.557Z,95854
2015-07-11T01:39:46.932Z,95866
2015-07-11T01:40:05.369Z,95866
2015-07-11T01:40:23.744Z,95866
2015-07-11T01:40:42.137Z,95866
2015-07-11T01:41:00.528Z,95858
2015-07-11T01:41:18.903Z,95858
2015-07-11T01:41:41.702Z,95858
2015-07-11T01:42:00.092Z,95855
2015-07-11T01:42:18.467Z,95858
2015-07-11T01:42:36.889Z,95867
2015-07-11T01:42:55.297Z,95864
2015-07-11T01:43:13.672Z,95859
2015-07-11T01:43:32.047Z,95859
2015-07-11T01:43:50.284Z,95870
2015-07-11T01:44:08.690Z,95861
2015-07-11T01:44:27.081Z,95856
2015-07-11T01:44:45.456Z,95855
2015-07-11T01:45:03.833Z,95854
2015-07-11T01:45:22.223Z,95862
2015-07-11T01:45:40.598Z,95859
2015-07-11T01:45:59.007Z,95867
2015-07-11T01:46:17.398Z,95865
2015-07-11T01:46:35.820Z,95856
2015-07-11T01:46:54.195Z,95867
2015-07-11T01:47:12.697Z,95861
2015-07-11T01:47:31.119Z,95859
2015-07-11T01:47:49.650Z,95873
2015-07-11T01:48:08.042Z,95862
2015-07-11T01:48:26.432Z,95867
2015-07-11T01:48:44.807Z,95861
2015-07-11T01:49:03.182Z,95866
2015-07-11T01:49:21.575Z,95851
2015-07-11T01:49:39.950Z,95865
2015-07-11T01:49:58.325Z,95862
2015-07-11T01:50:16.702Z,95856
2015-07-11T01:50:35.061Z,95868
2015-07-11T01:50:53.452Z,95854
2015-07-11T01:51:11.811Z,95862
2015-07-11T01:51:30.204Z,95860
2015-07-11T01:51:48.579Z,95863
2015-07-11T01:52:06.954Z,95855
2015-07-11T01:52:25.316Z,95858
2015-07-11T01:52:43.676Z,95853
2015-07-11T01:53:02.066Z,95862
2015-07-11T01:53:20.441Z,95859
2015-07-11T01:53:38.802Z,95862
2015-07-11T01:53:57.192Z,95867
2015-07-11T01:54:15.583Z,95866
2015-07-11T01:54:33.977Z,95866
2015-07-11T01:54:52.367Z,95867
2015-07-11T01:55:10.742Z,95861
2015-07-11T01:55:29.164Z,95867
2015-07-11T01:55:47.525Z,95869
2015-07-11T01:56:05.932Z,95863
2015-07-11T01:56:24.572Z,95869
2015-07-11T01:56:42.981Z,95860
2015-07-11T01:57:01.418Z,95871
2015-07-11T01:57:19.215Z,95860
2015-07-11T01:57:37.731Z,95872
2015-07-11T01:57:56.233Z,95858
2015-07-11T01:58:14.779Z,95869
2015-07-11T01:58:33.217Z,95877
2015-07-11T01:58:51.953Z,95871
2015-07-11T01:59:10.485Z,95861
2015-07-11T01:59:29.047Z,95866
2015-07-11T01:59:47.549Z,95869
2015-07-11T02:00:05.971Z,95864
2015-07-11T02:00:24.487Z,95865
2015-07-11T02:00:42.908Z,95871
2015-07-11T02:01:01.364Z,95868
2015-07-11T02:01:19.739Z,95870
2015-07-11T02:01:38.145Z,95868
2015-07-11T02:01:56.551Z,95865
2015-07-11T02:02:14.976Z,95871
2015-07-11T02:02:33.398Z,95858
2015-07-11T02:02:51.835Z,95866
2015-07-11T02:03:10.321Z,95865
2015-07-11T02:03:28.836Z,95871
2015-07-11T02:03:47.305Z,95860
2015-07-11T02:04:05.914Z,95871
2015-07-11T02:04:24.323Z,95861
2015-07-11T02:04:42.760Z,95861
2015-07-11T02:05:01.135Z,95874
2015-07-11T02:05:19.685Z,95866
2015-07-11T02:05:38.185Z,95871
2015-07-11T02:05:56.576Z,95866
2015-07-11T02:06:15.029Z,95875
2015-07-11T02:06:33.420Z,95864
2015-07-11T02:06:51.983Z,95870
2015-07-11T02:07:10.374Z,95871
2015-07-11T02:07:29.064Z,95863
2015-07-11T02:07:47.642Z,95866
2015-07-11T02:08:06.048Z,95863
2015-07-11T02:08:24.533Z,95863
2015-07-11T02:08:42.941Z,95869
2015-07-11T02:09:01.316Z,95861
2015-07-11T02:09:19.785Z,95873
2015-07-11T02:09:38.240Z,95867
2015-07-11T02:09:56.599Z,95862
2015-07-11T02:10:14.959Z,95859
2015-07-11T02:10:33.334Z,95865
2015-07-11T02:10:51.789Z,95868
2015-07-11T02:11:10.148Z,95856
2015-07-11T02:11:28.570Z,95870
2015-07-11T02:11:46.946Z,95864
2015-07-11T02:12:05.446Z,95867
2015-07-11T02:12:24.024Z,95870
2015-07-11T02:12:42.430Z,95870
2015-07-11T02:13:00.840Z,95867
2015-07-11T02:13:19.215Z,95875
2015-07-11T02:13:37.574Z,95868
2015-07-11T02:13:56.092Z,95863
2015-07-11T02:14:14.451Z,95863
2015-07-11T02:14:32.920Z,95862
2015-07-11T02:14:51.420Z,95863
2015-07-11T02:15:09.984Z,95866
2015-07-11T02:15:28.406Z,95863
2015-07-11T02:15:46.812Z,95863
2015-07-11T02:16:05.346Z,95858
2015-07-11T02:16:23.783Z,95852
2015-07-11T02:16:42.283Z,95858
2015-07-11T02:17:00.846Z,95852
2015-07-11T02:17:19.348Z,95847
2015-07-11T02:17:37.723Z,95856
2015-07-11T02:17:56.238Z,95859
2015-07-11T02:18:14.678Z,95862
2015-07-11T02:18:33.084Z,95851
2015-07-11T02:18:51.537Z,95848
2015-07-11T02:19:09.912Z,95857
2015-07-11T02:19:28.399Z,95854
2015-07-11T02:19:46.758Z,95851
2015-07-11T02:20:05.133Z,95854
2015-07-11T02:20:23.527Z,95848
2015-07-11T02:20:42.073Z,95857
2015-07-11T02:21:00.480Z,95851
2015-07-11T02:21:18.886Z,95846
2015-07-11T02:21:37.341Z,95843
2015-07-11T02:21:55.700Z,95845
2015-07-11T02:22:14.247Z,95845
2015-07-11T02:22:32.639Z,95842
2015-07-11T02:22:51.014Z,95842
2015-07-11T02:23:09.405Z,95850
2015-07-11T02:23:27.905Z,95855
2015-07-11T02:23:46.282Z,95844
2015-07-11T02:24:04.719Z,95847
2015-07-11T02:24:23.157Z,95839
2015-07-11T02:24:41.675Z,95847
2015-07-11T02:25:00.128Z,95844
2015-07-11T02:25:18.581Z,95844
2015-07-11T02:25:37.066Z,95833
2015-07-11T02:25:55.458Z,95844
2015-07-11T02:26:13.224Z,95845
2015-07-11T02:26:31.599Z,95839
2015-07-11T02:26:51.398Z,95842
2015-07-11T02:27:09.835Z,95842
2015-07-11T02:27:28.570Z,95839
2015-07-11T02:27:47.244Z,95840
2015-07-11T02:28:05.728Z,95840
2015-07-11T02:28:24.103Z,95834
2015-07-11T02:28:42.509Z,95831
2015-07-11T02:29:01.011Z,95839
2015-07-11T02:29:19.402Z,95840
2015-07-11T02:29:37.949Z,95843
2015-07-11T02:29:56.605Z,95837
2015-07-11T02:30:15.029Z,95834
2015-07-11T02:30:33.498Z,95839
2015-07-11T02:30:52.076Z,95831
2015-07-11T02:31:10.578Z,95840
2015-07-11T02:31:29.062Z,95840
2015-07-11T02:31:47.687Z,95843
2015-07-11T02:32:06.250Z,95840
2015-07-11T02:32:24.705Z,95840
2015-07-11T02:32:43.189Z,95825
2015-07-11T02:33:01.955Z,95845
2015-07-11T02:33:19.816Z,95834
2015-07-11T02:33:38.269Z,95836
2015-07-11T02:33:56.738Z,95846
2015-07-11T02:34:15.176Z,95846
2015-07-11T02:34:33.849Z,95850
2015-07-11T02:34:52.334Z,95844
2015-07-11T02:35:10.881Z,95830
2015-07-11T02:35:29.351Z,95834
2015-07-11T02:35:47.773Z,95831
2015-07-11T02:36:06.164Z,95847
2015-07-11T02:36:24.617Z,95833
2015-07-11T02:36:43.011Z,95830
2015-07-11T02:37:01.683Z,95825
2015-07-11T02:37:20.386Z,95830
2015-07-11T02:37:38.965Z,95822
2015-07-11T02:37:57.527Z,95844
2015-07-11T02:38:15.918Z,95839
2015-07-11T02:38:34.465Z,95839
2015-07-11T02:38:52.998Z,95836
2015-07-11T02:39:11.670Z,95830
2015-07-11T02:39:30.107Z,95833
2015-07-11T02:39:48.626Z,95838
2015-07-11T02:40:07.064Z,95833
2015-07-11T02:40:25.532Z,95827
2015-07-11T02:40:43.892Z,95837
2015-07-11T02:41:02.596Z,95832
2015-07-11T02:41:21.143Z,95840
2015-07-11T02:41:39.658Z,95837
2015-07-11T02:41:58.146Z,95837
2015-07-11T02:42:16.771Z,95832
2015-07-11T02:42:35.364Z,95849
2015-07-11T02:42:54.038Z,95841
2015-07-11T02:43:12.491Z,95837
2015-07-11T02:43:31.320Z,95842
2015-07-11T02:43:49.773Z,95842
2015-07-11T02:44:08.165Z,95842
2015-07-11T02:44:26.681Z,95839
2015-07-11T02:44:45.275Z,95839
2015-07-11T02:45:03.853Z,95834
2015-07-11T02:45:22.511Z,95838
2015-07-11T02:45:40.902Z,95835
2015-07-11T02:45:59.511Z,95843
2015-07-11T02:46:17.919Z,95844
2015-07-11T02:46:36.279Z,95841
2015-07-11T02:46:54.701Z,95833
2015-07-11T02:47:13.247Z,95844
2015-07-11T02:47:31.812Z,95834
2015-07-11T02:47:50.359Z,95843
2015-07-11T02:48:08.781Z,95840
2015-07-11T02:48:27.189Z,95842
2015-07-11T02:48:45.736Z,95839
2015-07-11T02:49:04.173Z,95842
2015-07-11T02:49:22.533Z,95850
2015-07-11T02:49:41.066Z,95844
2015-07-11T02:49:59.863Z,95841
2015-07-11T02:50:18.488Z,95840
2015-07-11T02:50:37.053Z,95838
2015-07-11T02:50:55.444Z,95844
2015-07-11T02:51:13.803Z,95844
2015-07-11T02:51:32.381Z,95847
2015-07-11T02:51:50.757Z,95850
2015-07-11T02:52:09.242Z,95828
2015-07-11T02:52:27.773Z,95842
2015-07-11T02:52:46.229Z,95834
2015-07-11T02:53:04.729Z,95839
2015-07-11T02:53:23.214Z,95837
2015-07-11T02:53:41.604Z,95823
2015-07-11T02:54:00.106Z,95832
2015-07-11T02:54:18.606Z,95837
2015-07-11T02:54:37.184Z,95840
2015-07-11T02:54:55.655Z,95837
2015-07-11T02:55:14.296Z,95831
2015-07-11T02:55:32.780Z,95831
2015-07-11T02:55:51.202Z,95837
2015-07-11T02:56:09.751Z,95834
2015-07-11T02:56:28.266Z,95829
2015-07-11T02:56:46.688Z,95829
2015-07-11T02:57:05.253Z,95832
2015-07-11T02:57:23.706Z,95818
2015-07-11T02:57:42.253Z,95812
2015-07-11T02:58:00.706Z,95815
2015-07-11T02:58:19.302Z,95823
2015-07-11T02:58:37.802Z,95812
2015-07-11T02:58:56.270Z,95826
2015-07-11T02:59:14.694Z,95815
2015-07-11T02:59:33.272Z,95818
2015-07-11T02:59:51.851Z,95821
2015-07-11T03:00:10.288Z,95810
2015-07-11T03:00:28.868Z,95816
2015-07-11T03:00:47.462Z,95814
2015-07-11T03:01:05.931Z,95827
2015-07-11T03:01:24.464Z,95821
2015-07-11T03:01:42.855Z,95816
2015-07-11T03:02:01.339Z,95819
2015-07-11T03:02:19.714Z,95818
2015-07-11T03:02:38.170Z,95813
2015-07-11T03:02:56.717Z,95813
2015-07-11T03:03:15.342Z,95807
2015-07-11T03:03:33.984Z,95812
2015-07-11T03:03:52.437Z,95809
2015-07-11T03:04:10.859Z,95814
2015-07-11T03:04:29.234Z,95808
2015-07-11T03:04:47.829Z,95808
2015-07-11T03:05:06.204Z,95820
2015-07-11T03:05:24.626Z,95820
2015-07-11T03:05:43.316Z,95814
2015-07-11T03:06:02.066Z,95806
2015-07-11T03:06:20.472Z,95817
2015-07-11T03:06:39.019Z,95814
2015-07-11T03:06:57.569Z,95817
2015-07-11T03:07:16.194Z,95812
2015-07-11T03:07:34.834Z,95809
2015-07-11T03:07:53.305Z,95814
2015-07-11T03:08:11.743Z,95814
2015-07-11T03:08:30.118Z,95811
2015-07-11T03:08:48.508Z,95814
2015-07-11T03:09:06.901Z,95812
2015-07-11T03:09:25.291Z,95821
2015-07-11T03:09:43.791Z,95812
2015-07-11T03:10:02.496Z,95809
2015-07-11T03:10:21.214Z,95806
2015-07-11T03:10:39.621Z,95806
2015-07-11T03:10:58.011Z,95804
2015-07-11T03:11:16.670Z,95806
2015-07-11T03:11:35.405Z,95798
2015-07-11T03:11:53.952Z,95806
2015-07-11T03:12:12.594Z,95812
2015-07-11T03:12:30.985Z,95804
2015-07-11T03:12:49.391Z,95798
2015-07-11T03:13:07.797Z,95810
2015-07-11T03:13:26.471Z,95807
2015-07-11T03:13:44.909Z,95804
2015-07-11T03:14:03.284Z,95794
2015-07-11T03:14:21.676Z,95794
2015-07-11T03:14:40.083Z,95794
2015-07-11T03:14:58.536Z,95794
2015-07-11T03:15:17.114Z,95814
2015-07-11T03:15:35.569Z,95797
2015-07-11T03:15:54.194Z,95800
2015-07-11T03:16:12.616Z,95802
2015-07-11T03:16:31.134Z,95799
2015-07-11T03:16:49.524Z,95801
2015-07-11T03:17:07.915Z,95797
2015-07-11T03:17:26.399Z,95802
2015-07-11T03:17:44.854Z,95797
2015-07-11T03:18:03.542Z,95805
2015-07-11T03:18:22.057Z,95805
2015-07-11T03:18:40.889Z,95801
2015-07-11T03:18:59.310Z,95789
2015-07-11T03:19:17.685Z,95808
2015-07-11T03:19:36.045Z,95802
2015-07-11T03:19:54.702Z,95803
2015-07-11T03:20:13.327Z,95806
2015-07-11T03:20:31.796Z,95814
2015-07-11T03:20:50.298Z,95820
2015-07-11T03:21:08.751Z,95804
2015-07-11T03:21:26.517Z,95809
2015-07-11T03:21:45.267Z,95821
2015-07-11T03:22:03.769Z,95804
2015-07-11T03:22:22.159Z,95823
2015-07-11T03:22:40.753Z,95812
2015-07-11T03:22:59.428Z,95809
2015-07-11T03:23:17.912Z,95809
2015-07-11T03:23:36.537Z,95817
2015-07-11T03:23:55.195Z,95818
2015-07-11T03:24:13.961Z,95818
2015-07-11T03:24:32.399Z,95809
2015-07-11T03:24:50.695Z,95815
2015-07-11T03:25:09.087Z,95820
2015-07-11T03:25:27.775Z,95820
2015-07-11T03:25:46.431Z,95817
2015-07-11T03:26:04.965Z,95814
2015-07-11T03:26:23.449Z,95808
2015-07-11T03:26:41.996Z,95813
2015-07-11T03:27:00.637Z,95821
2015-07-11T03:27:19.014Z,95821
2015-07-11T03:27:37.530Z,95812
2015-07-11T03:27:55.905Z,95821
2015-07-11T03:28:14.373Z,95818
2015-07-11T03:28:32.906Z,95826
2015-07-11T03:28:51.281Z,95821
2015-07-11T03:29:09.859Z,95811
2015-07-11T03:29:28.346Z,95819
2015-07-11T03:29:46.721Z,95813
2015-07-11T03:30:05.174Z,95816
2015-07-11T03:30:23.815Z,95822
2015-07-11T03:30:42.504Z,95816
2015-07-11T03:31:01.207Z,95822
2015-07-11T03:31:19.629Z,95820
2015-07-11T03:31:38.085Z,95817
2015-07-11T03:31:56.492Z,95826
2015-07-11T03:32:15.085Z,95817
2015-07-11T03:32:33.695Z,95823
2015-07-11T03:32:52.399Z,95810
2015-07-11T03:33:10.774Z,95816
2015-07-11T03:33:29.211Z,95811
2015-07-11T03:33:47.635Z,95811
2015-07-11T03:34:06.010Z,95811
2015-07-11T03:34:24.401Z,95816
2015-07-11T03:34:43.198Z,95819
2015-07-11T03:35:01.590Z,95816
2015-07-11T03:35:20.044Z,95816
2015-07-11T03:35:38.559Z,95811
2015-07-11T03:35:57.218Z,95819
2015-07-11T03:36:16.031Z,95819
2015-07-11T03:36:34.406Z,95819
2015-07-11T03:36:52.922Z,95816
2015-07-11T03:37:11.408Z,95824
2015-07-11T03:37:30.049Z,95816
2015-07-11T03:37:48.486Z,95813
2015-07-11T03:38:07.315Z,95822
2015-07-11T03:38:25.721Z,95810
2015-07-11T03:38:44.237Z,95816
2015-07-11T03:39:02.690Z,95805
2015-07-11T03:39:21.302Z,95819
2015-07-11T03:39:40.036Z,95816
2015-07-11T03:39:58.630Z,95808
2015-07-11T03:40:17.258Z,95817
2015-07-11T03:40:35.898Z,95819
2015-07-11T03:40:54.336Z,95819
2015-07-11T03:41:12.726Z,95811
2015-07-11T03:41:31.244Z,95814
2015-07-11T03:41:49.791Z,95803
2015-07-11T03:42:08.307Z,95822
2015-07-11T03:42:26.793Z,95820
2015-07-11T03:42:45.387Z,95817
2015-07-11T03:43:03.887Z,95818
2015-07-11T03:43:22.465Z,95818
2015-07-11T03:43:41.092Z,95810
2015-07-11T03:43:59.639Z,95801
2015-07-11T03:44:18.107Z,95818
2015-07-11T03:44:36.548Z,95804
2015-07-11T03:44:54.923Z,95826
2015-07-11T03:45:13.314Z,95809
2015-07-11T03:45:31.939Z,95814
2015-07-11T03:45:50.455Z,95828
2015-07-11T03:46:08.908Z,95811
2015-07-11T03:46:27.299Z,95806
2015-07-11T03:46:46.067Z,95814
2015-07-11T03:47:04.582Z,95822
2015-07-11T03:47:23.223Z,95824
2015-07-11T03:47:41.647Z,95830
2015-07-11T03:48:00.225Z,95814
2015-07-11T03:48:18.787Z,95822
2015-07-11T03:48:37.350Z,95822
2015-07-11T03:48:55.711Z,95822
2015-07-11T03:49:14.086Z,95824
2015-07-11T03:49:32.477Z,95816
2015-07-11T03:49:51.039Z,95824
2015-07-11T03:50:09.682Z,95818
2015-07-11T03:50:28.166Z,95818
2015-07-11T03:50:46.682Z,95817
2015-07-11T03:51:05.419Z,95820
2015-07-11T03:51:23.872Z,95814
2015-07-11T03:51:42.326Z,95820
2015-07-11T03:52:00.810Z,95814
2015-07-11T03:52:19.343Z,95814
2015-07-11T03:52:38.109Z,95817
2015-07-11T03:52:56.687Z,95820
2015-07-11T03:53:15.251Z,95812
2015-07-11T03:53:33.845Z,95818
2015-07-11T03:53:52.533Z,95813
2015-07-11T03:54:11.050Z,95816
2015-07-11T03:54:29.550Z,95810
2015-07-11T03:54:48.050Z,95810
2015-07-11T03:55:06.675Z,95805
2015-07-11T03:55:25.193Z,95810
2015-07-11T03:55:44.037Z,95802
2015-07-11T03:56:02.646Z,95815
2015-07-11T03:56:21.054Z,95816
2015-07-11T03:56:39.820Z,95807
2015-07-11T03:56:58.382Z,95802
2015-07-11T03:57:17.117Z,95807
2015-07-11T03:57:35.618Z,95803
2015-07-11T03:57:54.055Z,95808